createdAt,value
2023-01-29T00:02:01.470Z,20.02
2023-01-29T00:04:30.996Z,20.08
2023-01-29T00:09:26.959Z,18.20
2023-01-29T00:11:54.988Z,18.25
2023-01-29T00:14:23.003Z,18.58
2023-01-29T00:16:51.043Z,20.25
2023-01-29T00:19:19.524Z,20.50
2023-01-29T00:21:48.936Z,19.10
2023-01-29T00:26:44.927Z,19.13
2023-01-29T00:29:12.998Z,18.60
2023-01-29T00:31:41.067Z,17.48
2023-01-29T00:34:09.160Z,17.50
2023-01-29T00:36:37.185Z,18.58
2023-01-29T00:39:10.889Z,18.38
2023-01-29T00:41:56.966Z,17.95
2023-01-29T00:44:42.717Z,18.05
2023-01-29T00:47:30.988Z,17.92
2023-01-29T00:49:59.144Z,12.83
2023-01-29T00:52:27.601Z,18.23
2023-01-29T00:54:58.500Z,18.70
2023-01-29T00:57:28.185Z,18.35
2023-01-29T00:59:56.479Z,16.77
2023-01-29T01:02:42.759Z,17.70
2023-01-29T01:05:14.149Z,15.43
2023-01-29T01:07:42.305Z,15.82
2023-01-29T01:10:20.912Z,14.60
2023-01-29T01:12:50.688Z,13.93
2023-01-29T01:15:19.609Z,15.35
2023-01-29T01:17:48.838Z,15.50
2023-01-29T01:20:17.154Z,13.90
2023-01-29T01:22:45.440Z,11.23
2023-01-29T01:25:15.341Z,13.63
2023-01-29T01:27:43.344Z,15.30
2023-01-29T01:30:13.906Z,13.70
2023-01-29T01:32:42.832Z,13.32
2023-01-29T01:35:13.173Z,13.25
2023-01-29T01:37:41.686Z,12.52
2023-01-29T01:40:18.300Z,13.25
2023-01-29T01:42:49.406Z,12.48
2023-01-29T01:45:22.927Z,13.48
2023-01-29T01:47:55.064Z,11.90
2023-01-29T01:50:27.884Z,13.00
2023-01-29T01:53:02.871Z,14.13
2023-01-29T01:55:34.945Z,13.77
2023-01-29T01:58:09.961Z,12.98
2023-01-29T02:00:38.146Z,14.20
2023-01-29T02:03:24.706Z,13.55
2023-01-29T02:06:12.290Z,13.52
2023-01-29T02:09:05.237Z,13.40
2023-01-29T02:11:34.806Z,13.35
2023-01-29T02:14:03.540Z,13.88
2023-01-29T02:16:31.817Z,14.90
2023-01-29T02:18:59.959Z,13.63
2023-01-29T02:21:51.507Z,13.32
2023-01-29T02:24:48.693Z,14.65
2023-01-29T02:27:22.164Z,14.60
2023-01-29T02:30:02.401Z,13.60
2023-01-29T02:32:37.814Z,14.60
2023-01-29T02:35:28.587Z,13.20
2023-01-29T02:38:08.296Z,14.30
2023-01-29T02:40:41.987Z,13.93
2023-01-29T02:43:24.397Z,14.77
2023-01-29T02:46:01.667Z,14.45
2023-01-29T02:48:41.653Z,14.32
2023-01-29T02:51:15.202Z,13.93
2023-01-29T02:53:52.786Z,15.30
2023-01-29T02:56:25.220Z,14.52
2023-01-29T02:59:00.213Z,15.35
2023-01-29T03:01:32.973Z,15.52
2023-01-29T03:04:07.161Z,15.02
2023-01-29T03:06:39.382Z,16.15
2023-01-29T03:09:16.415Z,14.48
2023-01-29T03:11:50.528Z,13.85
2023-01-29T03:14:24.295Z,14.25
2023-01-29T03:16:54.900Z,13.30
2023-01-29T03:19:29.657Z,14.10
2023-01-29T03:22:04.165Z,14.77
2023-01-29T03:24:56.372Z,14.73
2023-01-29T03:27:46.542Z,13.68
2023-01-29T03:30:36.047Z,15.23
2023-01-29T03:33:10.147Z,14.00
2023-01-29T03:35:41.621Z,14.50
2023-01-29T03:38:12.398Z,13.68
2023-01-29T03:40:46.927Z,13.50
2023-01-29T03:43:26.053Z,13.73
2023-01-29T03:46:02.689Z,14.10
2023-01-29T03:48:37.914Z,12.63
2023-01-29T03:51:17.106Z,13.05
2023-01-29T03:53:50.805Z,13.15
2023-01-29T03:56:31.967Z,13.43
2023-01-29T03:59:03.517Z,12.75
2023-01-29T04:01:37.133Z,12.90
2023-01-29T04:04:12.954Z,12.50
2023-01-29T04:06:44.988Z,12.02
2023-01-29T04:09:17.310Z,12.40
2023-01-29T04:11:51.850Z,13.13
2023-01-29T04:14:19.954Z,12.82
2023-01-29T04:16:53.268Z,12.65
2023-01-29T04:19:23.758Z,12.57
2023-01-29T04:22:02.331Z,12.98
2023-01-29T04:24:30.620Z,11.38
2023-01-29T04:27:07.960Z,12.77
2023-01-29T04:29:42.957Z,13.75
2023-01-29T04:32:19.432Z,11.93
2023-01-29T04:35:00.896Z,11.77
2023-01-29T04:37:37.437Z,12.25
2023-01-29T04:40:15.837Z,13.07
2023-01-29T04:42:51.303Z,9.77
2023-01-29T04:45:28.972Z,11.68
2023-01-29T04:48:05.505Z,11.48
2023-01-29T04:50:39.377Z,13.25
2023-01-29T04:53:16.069Z,12.35
2023-01-29T04:55:48.498Z,11.98
2023-01-29T04:58:23.920Z,11.18
2023-01-29T05:00:55.615Z,11.52
2023-01-29T05:03:26.787Z,12.98
2023-01-29T05:05:58.248Z,10.85
2023-01-29T05:08:28.273Z,12.32
2023-01-29T05:10:58.635Z,10.80
2023-01-29T05:13:29.913Z,11.48
2023-01-29T05:16:01.766Z,11.30
2023-01-29T05:18:30.876Z,11.45
2023-01-29T05:21:04.137Z,10.88
2023-01-29T05:23:32.270Z,11.95
2023-01-29T05:26:00.422Z,10.82
2023-01-29T05:28:27.522Z,11.77
2023-01-29T05:30:57.578Z,11.65
2023-01-29T05:33:27.849Z,11.52
2023-01-29T05:35:56.424Z,11.55
2023-01-29T05:38:25.875Z,11.88
2023-01-29T05:43:24.048Z,11.18
2023-01-29T05:45:56.105Z,12.23
2023-01-29T05:48:25.328Z,11.65
2023-01-29T05:50:53.572Z,11.32
2023-01-29T05:53:21.683Z,10.88
2023-01-29T05:55:51.025Z,12.80
2023-01-29T05:58:19.745Z,13.68
2023-01-29T06:00:47.796Z,12.55
2023-01-29T06:03:16.015Z,11.70
2023-01-29T06:05:44.045Z,14.60
2023-01-29T06:08:12.080Z,12.75
2023-01-29T06:10:40.134Z,12.23
2023-01-29T06:13:09.517Z,13.00
2023-01-29T06:18:08.287Z,12.88
2023-01-29T06:20:36.397Z,13.73
2023-01-29T06:23:04.433Z,12.45
2023-01-29T06:25:32.737Z,12.27
2023-01-29T06:28:00.795Z,12.40
2023-01-29T06:30:31.689Z,13.18
2023-01-29T06:33:01.599Z,12.85
2023-01-29T06:35:29.765Z,12.73
2023-01-29T06:37:58.039Z,12.48
2023-01-29T06:40:26.114Z,12.65
2023-01-29T06:42:54.142Z,12.45
2023-01-29T06:45:22.153Z,13.07
2023-01-29T06:47:51.658Z,14.10
2023-01-29T06:50:19.855Z,12.95
2023-01-29T06:52:47.858Z,14.00
2023-01-29T06:55:15.944Z,13.43
2023-01-29T06:57:43.973Z,15.10
2023-01-29T07:00:13.309Z,15.00
2023-01-29T07:02:41.382Z,13.80
2023-01-29T07:05:10.968Z,14.23
2023-01-29T07:07:39.008Z,14.20
2023-01-29T07:10:08.299Z,14.93
2023-01-29T07:12:36.392Z,14.35
2023-01-29T07:15:04.804Z,15.27
2023-01-29T07:17:32.800Z,15.07
2023-01-29T07:20:00.844Z,15.00
2023-01-29T07:22:30.242Z,15.05
2023-01-29T07:27:26.820Z,14.98
2023-01-29T07:29:55.217Z,17.45
2023-01-29T07:32:23.462Z,17.90
2023-01-29T07:34:51.554Z,19.48
2023-01-29T07:37:19.561Z,16.60
2023-01-29T07:39:48.931Z,16.33
2023-01-29T07:44:44.794Z,17.52
2023-01-29T07:47:14.205Z,16.20
2023-01-29T07:49:43.186Z,14.10
2023-01-29T07:52:11.234Z,13.07
2023-01-29T07:54:39.295Z,13.27
2023-01-29T07:57:08.694Z,13.73
2023-01-29T08:02:04.541Z,13.48
2023-01-29T08:04:32.572Z,12.27
2023-01-29T08:07:00.654Z,12.32
2023-01-29T08:09:28.693Z,14.32
2023-01-29T08:11:56.775Z,12.98
2023-01-29T08:14:26.165Z,12.68
2023-01-29T08:19:21.958Z,13.38
2023-01-29T08:21:50.089Z,11.55
2023-01-29T08:24:18.293Z,14.75
2023-01-29T08:26:46.326Z,13.70
2023-01-29T08:29:14.768Z,17.48
2023-01-29T08:31:44.169Z,14.25
2023-01-29T08:36:40.053Z,17.60
2023-01-29T08:39:08.204Z,14.25
2023-01-29T08:41:36.257Z,14.52
2023-01-29T08:44:05.587Z,15.48
2023-01-29T08:46:33.828Z,11.88
2023-01-29T08:49:03.816Z,12.00
2023-01-29T08:51:31.834Z,11.68
2023-01-29T08:54:00.171Z,11.93
2023-01-29T08:56:28.194Z,11.35
2023-01-29T08:58:57.315Z,10.88
2023-01-29T09:01:26.287Z,12.25
2023-01-29T09:03:54.332Z,11.23
2023-01-29T09:06:23.696Z,10.40
2023-01-29T09:08:51.719Z,10.82
2023-01-29T09:11:19.728Z,10.45
2023-01-29T09:13:47.730Z,11.23
2023-01-29T09:16:15.793Z,10.98
2023-01-29T09:18:43.975Z,11.02
2023-01-29T09:21:12.025Z,12.05
2023-01-29T09:23:41.448Z,11.65
2023-01-29T09:26:09.747Z,11.93
2023-01-29T09:28:37.820Z,11.60
2023-01-29T09:31:06.230Z,10.15
2023-01-29T09:33:34.356Z,11.35
2023-01-29T09:36:04.371Z,11.05
2023-01-29T09:38:32.417Z,11.40
2023-01-29T09:41:14.757Z,12.15
2023-01-29T09:43:48.235Z,11.00
2023-01-29T09:46:22.122Z,10.55
2023-01-29T09:48:57.475Z,11.90
2023-01-29T09:51:29.419Z,10.98
2023-01-29T09:54:08.189Z,11.20
2023-01-29T09:56:37.543Z,11.02
2023-01-29T09:59:05.734Z,12.05
2023-01-29T10:01:40.932Z,10.50
2023-01-29T10:04:28.004Z,11.68
2023-01-29T10:07:10.758Z,12.48
2023-01-29T10:10:04.429Z,12.68
2023-01-29T10:12:49.479Z,12.32
2023-01-29T10:15:29.745Z,10.60
2023-01-29T10:18:14.301Z,12.35
2023-01-29T10:20:53.833Z,12.30
2023-01-29T10:25:54.415Z,11.35
2023-01-29T10:28:30.490Z,12.27
2023-01-29T10:31:03.413Z,11.38
2023-01-29T10:33:49.540Z,11.90
2023-01-29T10:36:29.694Z,13.02
2023-01-29T10:38:57.828Z,12.57
2023-01-29T10:41:39.679Z,12.20
2023-01-29T10:44:21.979Z,12.90
2023-01-29T10:47:07.372Z,11.60
2023-01-29T10:49:50.290Z,12.15
2023-01-29T10:52:28.448Z,11.18
2023-01-29T10:55:07.648Z,12.23
2023-01-29T10:57:57.275Z,12.43
2023-01-29T11:00:30.452Z,11.15
2023-01-29T11:02:58.522Z,12.27
2023-01-29T11:05:34.231Z,12.20
2023-01-29T11:08:06.584Z,12.50
2023-01-29T11:10:40.622Z,12.15
2023-01-29T11:13:15.534Z,12.13
2023-01-29T11:15:45.228Z,11.00
2023-01-29T11:18:15.660Z,12.70
2023-01-29T11:20:44.957Z,11.35
2023-01-29T11:23:27.917Z,11.13
2023-01-29T11:25:57.889Z,11.60
2023-01-29T11:28:40.167Z,10.93
2023-01-29T11:31:21.803Z,10.02
2023-01-29T11:33:51.708Z,10.35
2023-01-29T11:36:30.910Z,10.40
2023-01-29T11:39:20.720Z,11.30
2023-01-29T11:41:51.688Z,11.30
2023-01-29T11:44:27.796Z,11.77
2023-01-29T11:46:58.580Z,11.43
2023-01-29T11:49:34.093Z,10.55
2023-01-29T11:52:04.780Z,10.77
2023-01-29T11:54:36.685Z,36.95
2023-01-29T11:57:05.809Z,13.35
2023-01-29T11:59:44.327Z,11.32
2023-01-29T12:02:23.707Z,12.68
2023-01-29T12:04:52.317Z,12.63
2023-01-29T12:07:20.605Z,9.43
2023-01-29T12:09:55.477Z,18.77
2023-01-29T12:12:39.360Z,15.02
2023-01-29T12:15:18.463Z,11.80
2023-01-29T12:18:02.284Z,11.60
2023-01-29T12:20:36.284Z,11.90
2023-01-29T12:23:21.469Z,11.25
2023-01-29T12:25:57.348Z,11.35
2023-01-29T12:28:43.161Z,11.63
2023-01-29T12:31:28.857Z,12.05
2023-01-29T12:34:06.329Z,11.93
2023-01-29T12:36:39.418Z,13.13
2023-01-29T12:39:07.568Z,12.52
2023-01-29T12:41:45.963Z,11.68
2023-01-29T12:44:18.003Z,13.15
2023-01-29T12:46:52.805Z,12.65
2023-01-29T12:49:27.059Z,13.00
2023-01-29T12:52:00.379Z,11.30
2023-01-29T12:54:36.101Z,11.80
2023-01-29T12:57:09.094Z,11.55
2023-01-29T12:59:43.988Z,11.20
2023-01-29T13:02:22.845Z,11.60
2023-01-29T13:04:58.823Z,8.40
2023-01-29T13:07:31.681Z,11.63
2023-01-29T13:10:06.127Z,10.68
2023-01-29T13:12:35.173Z,12.40
2023-01-29T13:15:07.832Z,12.32
2023-01-29T13:17:38.783Z,12.65
2023-01-29T13:20:14.333Z,11.00
2023-01-29T13:22:45.034Z,12.52
2023-01-29T13:25:17.546Z,11.35
2023-01-29T13:27:47.772Z,13.40
2023-01-29T13:30:27.341Z,12.00
2023-01-29T13:35:25.625Z,11.85
2023-01-29T13:37:55.714Z,13.13
2023-01-29T13:40:27.435Z,13.63
2023-01-29T13:42:59.880Z,12.85
2023-01-29T13:45:35.584Z,11.88
2023-01-29T13:48:12.111Z,13.65
2023-01-29T13:50:43.926Z,12.65
2023-01-29T13:53:22.734Z,13.68
2023-01-29T13:55:50.781Z,14.68
2023-01-29T13:58:40.727Z,12.95
2023-01-29T14:01:08.834Z,12.50
2023-01-29T14:04:04.284Z,13.05
2023-01-29T14:06:52.054Z,15.35
2023-01-29T14:10:03.293Z,15.10
2023-01-29T14:12:47.390Z,15.35
2023-01-29T14:15:30.680Z,14.60
2023-01-29T14:18:06.190Z,13.38
2023-01-29T14:20:45.873Z,13.65
2023-01-29T14:23:36.727Z,14.80
2023-01-29T14:26:07.128Z,16.13
2023-01-29T14:28:36.327Z,15.57
2023-01-29T14:31:05.314Z,15.32
2023-01-29T14:33:36.952Z,14.30
2023-01-29T14:36:08.086Z,13.80
2023-01-29T14:38:38.532Z,15.27
2023-01-29T14:41:15.849Z,14.15
2023-01-29T14:43:43.880Z,14.18
2023-01-29T14:46:43.539Z,15.15
2023-01-29T14:49:11.734Z,13.55
2023-01-29T14:51:45.002Z,14.38
2023-01-29T14:54:26.331Z,15.38
2023-01-29T14:57:00.418Z,15.05
2023-01-29T14:59:34.578Z,16.00
2023-01-29T15:02:06.371Z,16.30
2023-01-29T15:04:42.148Z,14.90
2023-01-29T15:07:20.846Z,16.02
2023-01-29T15:10:03.932Z,15.85
2023-01-29T15:12:49.172Z,15.40
2023-01-29T15:15:21.661Z,15.70
2023-01-29T15:17:56.826Z,16.38
2023-01-29T15:20:30.226Z,16.27
2023-01-29T15:22:58.570Z,16.90
2023-01-29T15:25:29.108Z,17.85
2023-01-29T15:27:59.449Z,18.27
2023-01-29T15:30:34.042Z,17.60
2023-01-29T15:33:03.801Z,17.92
2023-01-29T15:35:36.905Z,18.65
2023-01-29T15:38:07.143Z,18.67
2023-01-29T15:40:36.484Z,18.92
2023-01-29T15:43:21.140Z,20.00
2023-01-29T15:45:50.309Z,19.75
2023-01-29T15:48:22.662Z,20.55
2023-01-29T15:50:54.237Z,20.80
2023-01-29T15:53:28.080Z,21.60
2023-01-29T15:55:59.928Z,20.10
2023-01-29T15:58:31.875Z,23.58
2023-01-29T16:01:01.637Z,22.25
2023-01-29T16:03:33.533Z,23.00
2023-01-29T16:06:02.841Z,23.75
2023-01-29T16:08:31.162Z,26.73
2023-01-29T16:11:02.579Z,27.67
2023-01-29T16:13:32.739Z,25.35
2023-01-29T16:16:02.194Z,25.25
2023-01-29T16:21:01.122Z,25.25
2023-01-29T16:23:33.318Z,30.35
2023-01-29T16:26:07.837Z,31.67
2023-01-29T16:28:42.024Z,31.52
2023-01-29T16:31:13.956Z,33.22
2023-01-29T16:33:45.328Z,33.58
2023-01-29T16:36:18.500Z,34.85
2023-01-29T16:38:50.196Z,38.15
2023-01-29T16:41:31.193Z,44.50
2023-01-29T16:44:01.514Z,46.67
2023-01-29T16:46:45.791Z,44.58
2023-01-29T16:49:45.048Z,39.47
2023-01-29T16:52:20.233Z,35.33
2023-01-29T16:54:48.644Z,34.13
2023-01-29T16:57:22.401Z,30.58
2023-01-29T16:59:54.015Z,29.27
2023-01-29T17:02:27.482Z,31.20
2023-01-29T17:05:01.477Z,34.63
2023-01-29T17:07:30.663Z,38.05
2023-01-29T17:10:01.827Z,38.65
2023-01-29T17:12:32.325Z,42.78
2023-01-29T17:15:01.989Z,38.03
2023-01-29T17:17:31.622Z,35.95
2023-01-29T17:20:03.775Z,34.78
2023-01-29T17:22:32.022Z,36.72
2023-01-29T17:25:00.198Z,34.03
2023-01-29T17:27:28.517Z,35.70
2023-01-29T17:29:58.017Z,37.03
2023-01-29T17:35:15.128Z,40.05
2023-01-29T17:37:44.292Z,39.42
2023-01-29T17:40:29.436Z,41.25
2023-01-29T17:42:57.477Z,39.63
2023-01-29T17:45:26.980Z,39.47
2023-01-29T17:50:26.378Z,39.38
2023-01-29T17:52:54.412Z,41.95
2023-01-29T17:55:22.880Z,44.00
2023-01-29T17:57:50.880Z,42.27
2023-01-29T18:00:21.728Z,39.60
2023-01-29T18:02:51.658Z,39.92
2023-01-29T18:05:20.314Z,42.47
2023-01-29T18:07:51.541Z,39.78
2023-01-29T18:10:21.895Z,40.05
2023-01-29T18:12:49.955Z,39.25
2023-01-29T18:15:18.431Z,35.38
2023-01-29T18:17:47.138Z,34.58
2023-01-29T18:20:21.746Z,33.15
2023-01-29T18:22:50.013Z,31.20
2023-01-29T18:25:18.554Z,31.00
2023-01-29T18:27:47.559Z,30.98
2023-01-29T18:30:16.597Z,40.40
2023-01-29T18:32:44.591Z,36.33
2023-01-29T18:35:12.695Z,30.63
2023-01-29T18:37:42.108Z,28.45
2023-01-29T18:42:41.569Z,32.22
2023-01-29T18:45:10.383Z,27.90
2023-01-29T18:47:38.519Z,26.73
2023-01-29T18:50:07.444Z,37.10
2023-01-29T18:52:35.522Z,34.80
2023-01-29T18:55:05.213Z,39.80
2023-01-29T18:58:25.290Z,34.90
2023-01-29T19:00:21.870Z,36.95
2023-01-29T19:02:50.740Z,30.63
2023-01-29T19:05:22.691Z,41.10
2023-01-29T19:07:52.123Z,51.53
2023-01-29T19:12:49.383Z,38.53
2023-01-29T19:15:20.518Z,36.47
2023-01-29T19:17:48.585Z,30.27
2023-01-29T19:20:17.040Z,28.27
2023-01-29T19:22:45.090Z,23.33
2023-01-29T19:25:13.675Z,28.10
2023-01-29T19:27:43.093Z,31.73
2023-01-29T19:32:41.129Z,30.88
2023-01-29T19:35:09.485Z,30.98
2023-01-29T19:37:37.528Z,30.48
2023-01-29T19:40:08.107Z,29.27
2023-01-29T19:42:37.485Z,37.80
2023-01-29T19:47:40.153Z,44.08
2023-01-29T19:50:09.468Z,45.17
2023-01-29T19:55:22.340Z,44.53
2023-01-29T19:57:53.340Z,46.80
2023-01-29T20:00:23.406Z,43.28
2023-01-29T20:02:51.387Z,40.03
2023-01-29T20:05:20.287Z,36.65
2023-01-29T20:07:49.914Z,36.00
2023-01-29T20:10:18.562Z,31.23
2023-01-29T20:12:47.059Z,28.15
2023-01-29T20:15:16.120Z,28.57
2023-01-29T20:17:45.911Z,30.77
2023-01-29T20:20:14.896Z,31.35
2023-01-29T20:22:43.143Z,27.00
2023-01-29T20:25:13.534Z,32.17
2023-01-29T20:27:41.745Z,35.83
2023-01-29T20:30:11.283Z,39.17
2023-01-29T20:32:39.324Z,37.90
2023-01-29T20:35:10.266Z,33.55
2023-01-29T20:37:38.274Z,38.83
2023-01-29T20:40:07.214Z,39.27
2023-01-29T20:42:35.321Z,36.17
2023-01-29T20:45:03.362Z,37.35
2023-01-29T20:47:31.757Z,39.38
2023-01-29T20:49:59.797Z,39.17
2023-01-29T20:52:29.216Z,34.72
2023-01-29T20:54:57.229Z,33.80
2023-01-29T20:57:25.353Z,32.53
2023-01-29T20:59:53.367Z,31.73
2023-01-29T21:02:21.453Z,30.15
2023-01-29T21:04:49.703Z,32.37
2023-01-29T21:07:17.963Z,29.15
2023-01-29T21:09:47.597Z,25.05
2023-01-29T21:12:15.653Z,24.83
2023-01-29T21:14:43.664Z,24.95
2023-01-29T21:17:11.723Z,21.67
2023-01-29T21:19:39.759Z,23.77
2023-01-29T21:22:07.819Z,23.95
2023-01-29T21:24:36.265Z,24.05
2023-01-29T21:27:05.758Z,18.80
2023-01-29T21:29:34.873Z,25.30
2023-01-29T21:32:04.421Z,25.95
2023-01-29T21:34:32.499Z,32.15
2023-01-29T21:37:00.548Z,34.70
2023-01-29T21:39:28.524Z,36.33
2023-01-29T21:42:13.986Z,43.78
2023-01-29T21:44:43.380Z,45.47
2023-01-29T21:47:13.263Z,50.10
2023-01-29T21:49:42.324Z,58.13
2023-01-29T21:52:12.141Z,60.70
2023-01-29T21:54:40.945Z,56.17
2023-01-29T21:57:14.870Z,48.17
2023-01-29T21:59:47.749Z,48.50
2023-01-29T22:02:22.160Z,36.53
2023-01-29T22:04:52.190Z,44.60
2023-01-29T22:07:20.208Z,89.27
2023-01-29T22:09:48.318Z,91.13
2023-01-29T22:12:16.724Z,37.03
2023-01-29T22:14:47.304Z,42.87
2023-01-29T22:17:16.464Z,37.80
2023-01-29T22:19:44.751Z,39.53
2023-01-29T22:22:15.609Z,33.87
2023-01-29T22:24:44.819Z,35.03
2023-01-29T22:29:41.024Z,33.67
2023-01-29T22:32:11.449Z,34.53
2023-01-29T22:34:39.465Z,28.87
2023-01-29T22:37:07.521Z,27.43
2023-01-29T22:39:35.504Z,26.60
2023-01-29T22:42:03.521Z,25.33
2023-01-29T22:44:31.545Z,26.23
2023-01-29T22:46:59.522Z,23.43
2023-01-29T22:49:30.292Z,23.67
2023-01-29T22:52:10.869Z,25.00
2023-01-29T22:54:39.718Z,22.47
2023-01-29T22:57:10.028Z,27.23
2023-01-29T22:59:38.370Z,35.20
2023-01-29T23:02:06.714Z,28.17
2023-01-29T23:04:36.599Z,36.90
2023-01-29T23:07:04.780Z,30.57
2023-01-29T23:09:32.827Z,30.73
2023-01-29T23:12:01.293Z,30.10
2023-01-29T23:14:29.400Z,21.73
2023-01-29T23:16:57.586Z,25.27
2023-01-29T23:19:27.000Z,25.27
2023-01-29T23:21:56.431Z,20.97
2023-01-29T23:24:24.670Z,22.37
2023-01-29T23:27:10.437Z,17.13
2023-01-29T23:29:38.601Z,23.17
2023-01-29T23:32:07.308Z,21.20
2023-01-29T23:34:35.305Z,19.92
2023-01-29T23:37:05.107Z,22.07
2023-01-29T23:39:33.212Z,23.33
2023-01-29T23:42:01.850Z,23.40
2023-01-29T23:44:30.073Z,20.77
2023-01-29T23:46:58.322Z,21.13
2023-01-29T23:49:26.315Z,19.33
2023-01-29T23:51:54.463Z,21.63
2023-01-29T23:54:24.008Z,23.77
2023-01-29T23:56:52.187Z,21.43
2023-01-29T23:59:20.617Z,23.13
